Time;durP1;ratioP1;P1;durP2;ratioP2;P2;SDS_P1;SDS_P2;PMS_P1;PMS_P2;Temp;Humidity;BMP_temperature;BMP_pressure;BME280_temperature;BME280_humidity;BME280_pressure;Samples;Min_cycle;Max_cycle;Signal;HPM_P1;HPM_P2
2024/04/05 00:01:49;;;;;;;7.33;4.57;;;;;;;11.07;100.00;100819.75;6158095;28;20238;-72
2024/04/05 00:05:13;;;;;;;9.77;3.83;;;;;;;11.12;100.00;100819.28;6155771;28;20227;-71
2024/04/05 00:08:33;;;;;;;8.80;4.27;;;;;;;11.12;100.00;100835.47;6153355;28;20226;-72
2024/04/05 00:11:54;;;;;;;12.70;5.50;;;;;;;11.11;100.00;100834.66;6157702;28;20265;-72
2024/04/05 00:15:15;;;;;;;10.07;4.43;;;;;;;11.11;100.00;100821.16;6162279;28;20313;-71
2024/04/05 00:18:35;;;;;;;6.67;3.47;;;;;;;11.09;100.00;100823.16;6156709;28;20730;-71
2024/04/05 00:21:57;;;;;;;6.97;4.00;;;;;;;11.07;100.00;100825.13;6155233;28;20242;-72
2024/04/05 00:25:17;;;;;;;13.23;5.13;;;;;;;11.05;100.00;100827.13;6159093;28;20668;-71
2024/04/05 00:28:38;;;;;;;6.33;3.53;;;;;;;11.06;100.00;100825.25;6158244;28;20540;-72
2024/04/05 00:31:58;;;;;;;8.93;4.07;;;;;;;11.07;100.00;100818.88;6154177;28;20330;-72
2024/04/05 00:35:20;;;;;;;6.83;4.60;;;;;;;11.07;100.00;100810.78;6154876;28;20254;-71
2024/04/05 00:38:41;;;;;;;7.57;3.87;;;;;;;11.06;100.00;100817.16;6161991;28;20562;-72
2024/04/05 00:42:02;;;;;;;7.17;4.57;;;;;;;11.04;100.00;100825.41;6156385;28;20230;-72
2024/04/05 00:45:24;;;;;;;6.53;3.50;;;;;;;11.06;100.00;100822.56;6157967;28;20234;-72
2024/04/05 00:48:45;;;;;;;6.60;4.83;;;;;;;11.00;100.00;100826.69;6157737;28;20234;-72
2024/04/05 00:52:07;;;;;;;9.43;4.33;;;;;;;10.98;100.00;100819.72;6152877;28;20231;-72
2024/04/05 00:55:30;;;;;;;3.27;2.97;;;;;;;10.94;100.00;100829.09;6138974;28;20234;-71
2024/04/05 00:58:51;;;;;;;8.37;4.30;;;;;;;10.93;100.00;100822.81;6153442;28;20238;-72
2024/04/05 01:02:12;;;;;;;8.13;4.33;;;;;;;10.94;100.00;100824.53;6155393;28;20235;-71
2024/04/05 01:05:35;;;;;;;7.00;3.90;;;;;;;10.91;100.00;100823.97;6155071;28;20241;-71
2024/04/05 01:08:56;;;;;;;10.20;3.77;;;;;;;10.89;100.00;100826.78;6148760;28;20230;-72
2024/04/05 01:12:17;;;;;;;7.90;4.27;;;;;;;10.91;100.00;100829.38;6150387;28;20226;-72
2024/04/05 01:15:38;;;;;;;5.00;3.20;;;;;;;10.88;100.00;100835.91;6145397;28;20517;-72
2024/04/05 01:18:59;;;;;;;7.23;3.33;;;;;;;10.90;100.00;100841.16;6161294;28;20234;-71
2024/04/05 01:22:27;;;;;;;14.20;4.40;;;;;;;10.96;100.00;100851.38;6154847;28;20321;-71
2024/04/05 01:25:51;;;;;;;9.40;3.57;;;;;;;10.98;100.00;100855.63;6159288;28;20801;-71
2024/04/05 01:29:11;;;;;;;15.40;4.13;;;;;;;11.01;100.00;100852.66;6162893;28;20262;-71
2024/04/05 01:32:31;;;;;;;4.83;3.80;;;;;;;11.04;100.00;100856.91;6161126;28;20234;-72
2024/04/05 01:35:52;;;;;;;13.40;5.17;;;;;;;11.05;100.00;100846.00;6167320;28;20238;-71
2024/04/05 01:39:13;;;;;;;10.83;5.13;;;;;;;11.08;100.00;100842.16;6167456;28;20222;-72
2024/04/05 01:42:35;;;;;;;9.17;4.73;;;;;;;11.02;100.00;100840.03;6148581;28;20831;-72
2024/04/05 01:45:55;;;;;;;8.27;4.77;;;;;;;11.04;100.00;100844.28;6151206;28;20234;-71
2024/04/05 01:49:15;;;;;;;8.23;4.00;;;;;;;11.00;100.00;100828.50;6166652;28;20668;-72
2024/04/05 01:52:36;;;;;;;8.33;3.87;;;;;;;11.01;100.00;100830.25;6160677;28;20257;-71
2024/04/05 01:56:01;;;;;;;10.87;4.83;;;;;;;10.94;100.00;100829.09;6154614;28;20237;-71
2024/04/05 01:59:23;;;;;;;10.17;4.47;;;;;;;10.94;100.00;100823.69;6170722;28;20238;-71
2024/04/05 02:02:44;;;;;;;11.67;4.90;;;;;;;10.91;100.00;100826.69;6169328;28;20230;-71
2024/04/05 02:06:11;;;;;;;16.30;7.27;;;;;;;10.90;100.00;100817.72;6147946;28;20243;-71
2024/04/05 02:09:32;;;;;;;9.57;4.50;;;;;;;10.92;100.00;100831.94;6163096;28;20250;-72
2024/04/05 02:12:53;;;;;;;13.57;7.00;;;;;;;10.93;100.00;100827.38;6162140;28;20820;-72
2024/04/05 02:16:15;;;;;;;10.90;4.93;;;;;;;11.00;100.00;100834.78;6145271;28;20230;-71
2024/04/05 02:19:36;;;;;;;11.47;5.67;;;;;;;11.07;100.00;100829.69;6135438;28;20234;-72
2024/04/05 02:22:57;;;;;;;16.87;5.10;;;;;;;11.01;100.00;100830.25;6157856;28;20226;-72
2024/04/05 02:26:17;;;;;;;10.53;5.50;;;;;;;10.99;100.00;100834.91;6158423;28;22448;-71
2024/04/05 02:29:39;;;;;;;15.67;6.07;;;;;;;11.01;100.00;100830.25;6164427;28;20556;-72
2024/04/05 02:33:01;;;;;;;12.63;5.77;;;;;;;11.00;100.00;100829.38;6157528;28;20241;-72
2024/04/05 02:36:21;;;;;;;15.60;5.53;;;;;;;11.02;100.00;100829.22;6164832;28;20242;-71
2024/04/05 02:39:43;;;;;;;10.37;4.97;;;;;;;11.04;100.00;100832.63;6161099;28;20242;-72
2024/04/05 02:43:03;;;;;;;14.60;5.53;;;;;;;11.08;100.00;100848.41;6159259;28;20229;-73
2024/04/05 02:46:24;;;;;;;17.57;6.33;;;;;;;11.14;100.00;100845.16;6158603;28;20230;-71
2024/04/05 02:49:45;;;;;;;13.20;5.37;;;;;;;11.18;100.00;100846.56;6159974;28;20230;-71
2024/04/05 02:53:07;;;;;;;16.40;6.23;;;;;;;11.20;100.00;100841.88;6142391;28;20218;-72
2024/04/05 02:56:26;;;;;;;12.57;4.97;;;;;;;11.22;100.00;100855.25;6160483;28;20364;-72
2024/04/05 02:59:47;;;;;;;17.60;6.30;;;;;;;11.27;100.00;100845.72;6159991;28;20313;-72
2024/04/05 03:03:07;;;;;;;16.13;5.60;;;;;;;11.30;100.00;100844.59;6153605;28;20227;-72
2024/04/05 03:06:31;;;;;;;12.93;6.23;;;;;;;11.31;100.00;100861.63;6157210;28;20318;-72
2024/04/05 03:09:52;;;;;;;24.77;8.50;;;;;;;11.32;100.00;100852.56;6159347;28;22462;-72
2024/04/05 03:13:13;;;;;;;7.07;5.33;;;;;;;11.35;100.00;100855.81;6159110;28;20986;-73
2024/04/05 03:16:34;;;;;;;9.90;5.30;;;;;;;11.34;100.00;100859.53;6150465;28;20564;-72
2024/04/05 03:19:55;;;;;;;11.90;4.63;;;;;;;11.33;100.00;100865.91;6151035;28;20238;-72
2024/04/05 03:23:16;;;;;;;13.50;6.10;;;;;;;11.24;100.00;100872.97;6169250;28;20260;-72
2024/04/05 03:26:37;;;;;;;13.03;7.10;;;;;;;11.24;100.00;100864.06;6155212;28;20556;-72
2024/04/05 03:29:59;;;;;;;16.07;7.43;;;;;;;11.20;100.00;100868.03;6147056;28;20250;-72
2024/04/05 03:33:19;;;;;;;13.17;6.90;;;;;;;11.21;100.00;100869.72;6162560;28;20333;-72
2024/04/05 03:36:40;;;;;;;15.90;6.83;;;;;;;11.13;100.00;100874.97;6143917;28;20276;-72
2024/04/05 03:40:02;;;;;;;12.70;5.73;;;;;;;11.09;100.00;100863.63;6162424;28;20805;-72
2024/04/05 03:43:23;;;;;;;11.77;6.30;;;;;;;11.05;100.00;100870.28;6169600;28;20233;-71
2024/04/05 03:46:45;;;;;;;20.23;7.20;;;;;;;11.01;100.00;100874.22;6158169;28;20233;-73
2024/04/05 03:50:07;;;;;;;20.67;6.53;;;;;;;11.01;100.00;100874.22;6160915;28;20230;-72
2024/04/05 03:53:28;;;;;;;9.73;6.03;;;;;;;10.99;100.00;100883.47;6151719;28;20473;-72
2024/04/05 03:56:50;;;;;;;10.93;5.17;;;;;;;10.93;100.00;100887.56;6145947;28;20230;-73
2024/04/05 04:00:11;;;;;;;14.87;6.67;;;;;;;10.92;100.00;100888.56;6150437;28;20955;-71
2024/04/05 04:03:34;;;;;;;15.33;6.07;;;;;;;10.90;100.00;100901.34;6151572;28;20230;-72
2024/04/05 04:06:54;;;;;;;21.07;7.73;;;;;;;10.89;100.00;100882.59;6164498;28;20509;-72
2024/04/05 04:10:15;;;;;;;22.03;7.60;;;;;;;10.83;100.00;100894.78;6159181;28;20301;-72
2024/04/05 04:13:36;;;;;;;13.73;5.70;;;;;;;10.87;100.00;100893.50;6167706;28;20324;-72
2024/04/05 04:16:57;;;;;;;20.87;5.83;;;;;;;10.85;100.00;100903.59;6158109;28;20234;-72
2024/04/05 04:20:19;;;;;;;14.47;6.83;;;;;;;10.85;100.00;100895.50;6158313;28;20508;-71
2024/04/05 04:23:39;;;;;;;11.57;5.57;;;;;;;10.84;100.00;100888.41;6160390;28;20258;-73
2024/04/05 04:27:01;;;;;;;18.23;4.67;;;;;;;10.88;100.00;100900.63;6154725;28;20314;-72
2024/04/05 04:30:23;;;;;;;16.27;5.80;;;;;;;10.88;100.00;100895.22;6143841;28;20226;-73
2024/04/05 04:33:44;;;;;;;16.20;6.43;;;;;;;10.92;100.00;100885.00;6164336;28;21843;-72
2024/04/05 04:37:05;;;;;;;16.90;7.73;;;;;;;10.93;100.00;100901.03;6163546;28;20222;-72
2024/04/05 04:40:25;;;;;;;8.00;3.97;;;;;;;10.93;100.00;100906.44;6151054;28;20842;-71
2024/04/05 04:43:46;;;;;;;10.37;4.67;;;;;;;10.91;100.00;100897.63;6168391;28;20601;-72
2024/04/05 04:47:09;;;;;;;9.57;5.53;;;;;;;10.88;100.00;100895.22;6160746;28;20500;-72
2024/04/05 04:50:29;;;;;;;18.30;6.63;;;;;;;10.89;100.00;100914.97;6151291;28;20234;-71
2024/04/05 04:53:50;;;;;;;20.53;6.10;;;;;;;10.87;100.00;100904.28;6170685;28;20238;-72
2024/04/05 04:57:11;;;;;;;11.13;5.60;;;;;;;10.86;100.00;100899.91;6163350;28;20269;-72
2024/04/05 05:00:32;;;;;;;20.57;7.07;;;;;;;10.88;100.00;100899.75;6156030;28;20234;-71
2024/04/05 05:03:54;;;;;;;10.93;5.23;;;;;;;10.89;100.00;100905.00;6172537;28;20273;-72
2024/04/05 05:07:14;;;;;;;13.43;5.87;;;;;;;10.96;100.00;100910.72;6160422;28;20234;-71
2024/04/05 05:10:38;;;;;;;11.90;4.87;;;;;;;10.99;100.00;100907.75;6130165;28;20234;-71
2024/04/05 05:13:59;;;;;;;12.70;4.70;;;;;;;11.00;100.00;100915.69;6166701;28;20235;-72
2024/04/05 05:17:19;;;;;;;8.67;5.40;;;;;;;11.00;100.00;100904.03;6157298;28;20325;-72
2024/04/05 05:20:47;;;;;;;12.57;6.03;;;;;;;10.97;100.00;100904.34;6137798;28;20348;-72
2024/04/05 05:24:07;;;;;;;10.07;5.57;;;;;;;11.02;100.00;100902.06;6174423;28;20225;-72
2024/04/05 05:27:28;;;;;;;13.03;5.97;;;;;;;11.03;100.00;100930.75;6158507;28;20818;-71
2024/04/05 05:30:48;;;;;;;14.70;6.00;;;;;;;11.05;100.00;100929.63;6158386;28;20230;-70
2024/04/05 05:34:09;;;;;;;14.80;6.53;;;;;;;11.06;100.00;100931.31;6165707;28;20230;-71
2024/04/05 05:37:32;;;;;;;11.40;5.60;;;;;;;11.08;100.00;100928.47;6159629;28;20241;-70
2024/04/05 05:40:53;;;;;;;11.93;5.27;;;;;;;11.10;100.00;100926.50;6157758;28;20254;-70
2024/04/05 05:44:13;;;;;;;10.53;5.57;;;;;;;11.12;100.00;100938.00;6161710;28;20234;-71
2024/04/05 05:47:34;;;;;;;14.73;5.93;;;;;;;11.12;100.00;100941.56;6154049;28;20234;-72
2024/04/05 05:50:54;;;;;;;6.43;5.33;;;;;;;11.15;100.00;100972.81;6166367;28;20234;-71
2024/04/05 05:54:16;;;;;;;10.90;5.30;;;;;;;11.17;100.00;100949.25;6163212;28;20611;-72
2024/04/05 05:57:37;;;;;;;12.43;5.97;;;;;;;11.14;100.00;100955.78;6157204;28;20229;-69
2024/04/05 06:00:57;;;;;;;12.93;6.63;;;;;;;11.17;100.00;100951.94;6157630;28;20222;-71
2024/04/05 06:04:18;;;;;;;13.77;7.07;;;;;;;11.16;100.00;100963.72;6169389;28;20235;-70
2024/04/05 06:07:38;;;;;;;13.87;6.33;;;;;;;11.20;100.00;100962.47;6153253;28;20230;-70
2024/04/05 06:11:00;;;;;;;12.57;5.37;;;;;;;11.36;100.00;100972.72;6157707;28;20250;-69
2024/04/05 06:14:21;;;;;;;14.07;5.93;;;;;;;11.36;100.00;100983.53;6161425;28;20239;-69
2024/04/05 06:17:46;;;;;;;11.70;5.20;;;;;;;11.44;100.00;100972.88;6155340;28;20238;-71
2024/04/05 06:21:07;;;;;;;12.60;5.40;;;;;;;11.39;100.00;100986.78;6147736;28;20643;-71
2024/04/05 06:24:29;;;;;;;10.60;5.40;;;;;;;11.46;100.00;100992.50;6156488;28;20258;-68
2024/04/05 06:27:52;;;;;;;15.60;6.50;;;;;;;11.48;100.00;100977.88;6160060;28;20239;-69
2024/04/05 06:31:13;;;;;;;13.13;6.30;;;;;;;11.50;100.00;100978.59;6145737;28;20238;-69
2024/04/05 06:34:39;;;;;;;15.30;6.10;;;;;;;11.55;100.00;100981.72;6152482;28;20241;-71
2024/04/05 06:38:00;;;;;;;19.10;6.43;;;;;;;11.53;100.00;100972.91;6160982;28;20599;-72
2024/04/05 06:41:19;;;;;;;13.00;5.13;;;;;;;11.61;100.00;100978.47;6162321;28;20253;-72
2024/04/05 06:44:42;;;;;;;10.30;4.60;;;;;;;11.66;100.00;100975.34;6165536;28;20257;-73
2024/04/05 06:48:03;;;;;;;14.00;5.47;;;;;;;11.64;100.00;100974.63;6157937;28;20722;-72
2024/04/05 06:51:25;;;;;;;9.60;5.00;;;;;;;11.63;100.00;100989.13;6158595;28;20644;-72
2024/04/05 06:54:46;;;;;;;12.03;5.00;;;;;;;11.68;100.00;100985.03;6160747;28;20326;-72
2024/04/05 06:58:08;;;;;;;23.03;7.10;;;;;;;11.71;100.00;100990.16;6156235;28;20229;-73
2024/04/05 07:01:31;;;;;;;12.67;5.90;;;;;;;11.75;100.00;100980.78;6138530;28;20237;-71
2024/04/05 07:04:52;;;;;;;9.43;4.50;;;;;;;11.87;100.00;100992.28;6145384;28;20321;-73
2024/04/05 07:08:12;;;;;;;11.10;4.57;;;;;;;11.88;100.00;100992.16;6163659;28;20234;-73
2024/04/05 07:11:33;;;;;;;8.00;3.50;;;;;;;12.01;100.00;100984.59;6159362;28;20320;-72
2024/04/05 07:14:54;;;;;;;8.33;4.97;;;;;;;12.14;100.00;100987.03;6165372;28;20230;-72
2024/04/05 07:18:15;;;;;;;13.97;4.97;;;;;;;12.06;100.00;100988.75;6163513;28;20619;-72
2024/04/05 07:21:36;;;;;;;13.00;5.47;;;;;;;11.93;100.00;100979.06;6133558;28;20238;-71
2024/04/05 07:24:57;;;;;;;17.57;5.73;;;;;;;11.86;100.00;100993.28;6164255;28;20686;-72
2024/04/05 07:28:17;;;;;;;13.77;4.63;;;;;;;11.89;100.00;100990.31;6169573;28;20230;-70
2024/04/05 07:31:38;;;;;;;15.87;5.60;;;;;;;11.91;100.00;100991.03;6142310;28;22008;-70
2024/04/05 07:34:59;;;;;;;9.80;5.37;;;;;;;11.88;100.00;100981.34;6162357;28;20234;-71
2024/04/05 07:38:20;;;;;;;7.30;4.27;;;;;;;11.95;100.00;100992.47;6164936;28;20253;-70
2024/04/05 07:41:41;;;;;;;13.57;5.57;;;;;;;12.08;100.00;100975.97;6139269;28;20511;-73
2024/04/05 07:45:03;;;;;;;9.50;4.30;;;;;;;12.15;100.00;100974.38;6155782;28;20234;-70
2024/04/05 07:48:24;;;;;;;13.90;5.10;;;;;;;12.11;100.00;100978.34;6131419;28;20245;-73
2024/04/05 07:51:45;;;;;;;10.13;4.83;;;;;;;12.20;100.00;100977.50;6142746;28;20307;-73
2024/04/05 07:55:08;;;;;;;11.33;4.50;;;;;;;12.20;100.00;100983.78;6150067;28;20234;-72
2024/04/05 07:58:28;;;;;;;18.80;5.00;;;;;;;12.16;100.00;100984.19;6141597;28;21458;-73
2024/04/05 08:01:49;;;;;;;6.00;4.37;;;;;;;12.34;100.00;100977.06;6144508;28;20234;-69
2024/04/05 08:05:10;;;;;;;11.63;4.50;;;;;;;12.32;100.00;100974.50;6153213;28;20226;-70
2024/04/05 08:08:33;;;;;;;16.60;6.00;;;;;;;12.49;100.00;100957.53;6160303;28;20234;-73
2024/04/05 08:11:54;;;;;;;8.07;4.53;;;;;;;12.61;100.00;100947.38;6154060;28;20709;-73
2024/04/05 08:15:14;;;;;;;11.27;5.47;;;;;;;12.68;100.00;100946.63;6159725;28;20780;-72
2024/04/05 08:18:34;;;;;;;10.03;4.83;;;;;;;12.74;100.00;100946.06;6154332;28;20247;-73
2024/04/05 08:21:56;;;;;;;13.27;5.63;;;;;;;12.73;100.00;100944.34;6151447;28;20317;-74
2024/04/05 08:25:18;;;;;;;16.07;5.17;;;;;;;12.80;100.00;100950.88;6132995;28;20249;-71
2024/04/05 08:28:39;;;;;;;9.93;5.33;;;;;;;13.00;100.00;100937.22;6157441;28;20242;-69
2024/04/05 08:32:00;;;;;;;10.30;5.23;;;;;;;13.22;100.00;100948.56;6153478;28;20253;-70
2024/04/05 08:35:19;;;;;;;14.30;5.03;;;;;;;13.12;100.00;100953.16;6148440;28;20236;-70
2024/04/05 08:38:40;;;;;;;12.77;5.17;;;;;;;13.12;100.00;100952.31;6168179;28;20229;-73
2024/04/05 08:42:10;;;;;;;9.50;5.57;;;;;;;13.31;100.00;100933.25;6153573;28;20230;-73
2024/04/05 08:45:31;;;;;;;19.53;5.20;;;;;;;13.53;100.00;100935.53;6150101;28;20241;-70
2024/04/05 08:48:53;;;;;;;9.00;3.70;;;;;;;13.15;100.00;100925.81;6159077;28;20347;-72
2024/04/05 08:52:14;;;;;;;12.67;5.33;;;;;;;13.55;100.00;100923.53;6152675;28;20250;-72
2024/04/05 08:55:37;;;;;;;17.97;5.27;;;;;;;14.05;100.00;100910.28;6158547;28;20234;-70
2024/04/05 08:59:00;;;;;;;15.17;5.33;;;;;;;14.50;100.00;100907.38;6165280;28;20242;-74
2024/04/05 09:02:23;;;;;;;12.70;5.63;;;;;;;14.43;100.00;100905.47;6148684;28;20234;-75
2024/04/05 09:05:43;;;;;;;7.17;3.53;;;;;;;14.63;100.00;100921.38;6151498;28;20873;-70
2024/04/05 09:09:04;;;;;;;12.37;5.63;;;;;;;14.97;100.00;100929.50;6154961;28;20305;-74
2024/04/05 09:12:26;;;;;;;10.17;5.00;;;;;;;14.79;100.00;100940.44;6149153;28;20600;-70
2024/04/05 09:15:52;;;;;;;11.27;4.47;;;;;;;14.81;100.00;100911.28;6162244;28;20234;-70
2024/04/05 09:19:12;;;;;;;9.40;4.43;;;;;;;14.40;100.00;100923.78;6157632;28;20500;-69
2024/04/05 09:22:33;;;;;;;8.37;4.27;;;;;;;14.80;100.00;100912.31;6164114;28;20222;-69
2024/04/05 09:26:01;;;;;;;15.10;5.77;;;;;;;14.88;100.00;100909.63;6170356;28;21688;-68
2024/04/05 09:29:22;;;;;;;9.40;5.27;;;;;;;15.04;100.00;100889.84;6175362;28;20382;-67
2024/04/05 09:32:49;;;;;;;8.40;4.33;;;;;;;15.12;100.00;100887.97;6164697;28;20234;-68
2024/04/05 09:36:14;;;;;;;9.97;3.87;;;;;;;15.29;100.00;100899.72;6166847;28;20226;-68
2024/04/05 09:39:35;;;;;;;9.43;4.17;;;;;;;15.73;100.00;100892.19;6174115;28;20226;-69
2024/04/05 09:42:57;;;;;;;6.77;3.17;;;;;;;16.02;100.00;100896.13;6158492;28;20234;-69
2024/04/05 09:46:24;;;;;;;6.80;4.23;;;;;;;15.48;100.00;100901.38;6148264;28;20231;-68
2024/04/05 09:49:46;;;;;;;9.17;3.97;;;;;;;15.58;100.00;100899.34;6156981;28;20325;-68
2024/04/05 09:53:08;;;;;;;10.00;4.20;;;;;;;15.62;100.00;100893.41;6157058;28;20230;-68
2024/04/05 09:56:32;;;;;;;7.20;2.87;;;;;;;16.03;100.00;100883.38;6157035;28;20226;-69
2024/04/05 09:59:53;;;;;;;7.47;3.00;;;;;;;16.24;100.00;100871.94;6164752;28;20619;-69
2024/04/05 10:03:14;;;;;;;5.75;3.42;;;;;;;16.34;100.00;100878.03;6158211;28;20261;-69
2024/04/05 10:06:39;;;;;;;4.90;3.60;;;;;;;15.76;100.00;100879.13;6158409;28;20620;-68
2024/04/05 10:10:07;;;;;;;6.17;2.87;;;;;;;16.08;100.00;100864.69;6159143;28;20226;-68
2024/04/05 10:13:29;;;;;;;6.93;3.27;;;;;;;17.22;100.00;100849.66;6163947;28;20245;-69
2024/04/05 10:16:54;;;;;;;5.97;3.10;;;;;;;16.71;100.00;100851.09;6157792;28;20230;-68
2024/04/05 10:20:13;;;;;;;3.97;2.73;;;;;;;16.29;100.00;100836.94;6153150;28;20227;-68
2024/04/05 10:23:37;;;;;;;5.27;2.73;;;;;;;16.70;100.00;100828.47;6163102;28;20256;-71
2024/04/05 10:26:58;;;;;;;6.30;2.70;;;;;;;17.14;100.00;100819.72;6155471;28;20281;-69
2024/04/05 10:30:21;;;;;;;8.53;2.90;;;;;;;16.57;100.00;100830.06;6155662;28;20226;-70
2024/04/05 10:33:45;;;;;;;3.27;2.53;;;;;;;16.20;100.00;100827.06;6162091;28;20233;-69
2024/04/05 10:37:09;;;;;;;5.73;3.57;;;;;;;16.46;100.00;100817.63;6155736;28;20234;-69
2024/04/05 10:40:33;;;;;;;7.47;3.77;;;;;;;16.07;100.00;100818.59;6157320;28;20243;-69
2024/04/05 10:44:01;;;;;;;8.20;2.70;;;;;;;15.90;100.00;100812.34;6158043;28;20231;-69
2024/04/05 10:47:21;;;;;;;6.53;2.60;;;;;;;16.02;100.00;100810.94;6148633;28;20229;-68
2024/04/05 10:50:42;;;;;;;10.40;3.50;;;;;;;16.05;100.00;100810.63;6157933;28;20846;-68
2024/04/05 10:54:13;;;;;;;6.40;2.97;;;;;;;16.11;100.00;100809.06;6165626;28;20230;-68
2024/04/05 10:57:37;;;;;;;4.90;2.87;;;;;;;16.14;100.00;100781.53;6161399;28;20223;-68
2024/04/05 11:00:58;;;;;;;17.93;3.50;;;;;;;16.04;100.00;100770.88;6158335;28;20470;-69
2024/04/05 11:04:23;;;;;;;3.73;3.37;;;;;;;16.17;100.00;100760.25;6161771;28;20237;-69
2024/04/05 11:07:45;;;;;;;5.73;3.33;;;;;;;16.07;100.00;100762.34;6157316;28;20248;-68
2024/04/05 11:11:10;;;;;;;5.23;2.87;;;;;;;15.90;100.00;100752.53;6147749;28;20277;-68
2024/04/05 11:14:33;;;;;;;6.67;3.60;;;;;;;15.82;100.00;100747.97;6156784;28;20237;-68
2024/04/05 11:18:01;;;;;;;5.97;3.60;;;;;;;15.90;100.00;100725.34;6146264;28;20309;-72
2024/04/05 11:21:21;;;;;;;4.40;2.93;;;;;;;15.84;100.00;100731.47;6155947;28;20254;-73
2024/04/05 11:24:48;;;;;;;7.07;3.30;;;;;;;15.89;100.00;100729.94;6179450;28;20230;-71
2024/04/05 11:28:12;;;;;;;6.50;3.10;;;;;;;15.73;100.00;100731.81;6145025;28;20317;-72
2024/04/05 11:31:34;;;;;;;9.30;3.20;;;;;;;15.94;100.00;100732.13;6158480;28;20234;-70
2024/04/05 11:34:56;;;;;;;6.57;3.73;;;;;;;15.90;100.00;100726.19;6164778;28;20408;-72
2024/04/05 11:38:16;;;;;;;8.60;3.20;;;;;;;15.94;100.00;100721.25;6166315;28;20231;-72
2024/04/05 11:41:37;;;;;;;3.43;2.57;;;;;;;15.69;100.00;100723.16;6161682;28;20230;-73
2024/04/05 11:44:58;;;;;;;2.83;2.27;;;;;;;15.75;100.00;100722.47;6164055;28;20239;-74
2024/04/05 11:48:21;;;;;;;5.93;2.60;;;;;;;15.62;100.00;100716.75;6162260;28;20234;-73
2024/04/05 11:51:41;;;;;;;4.73;2.83;;;;;;;15.59;100.00;100732.53;6154905;28;20238;-72
2024/04/05 11:55:02;;;;;;;3.67;2.87;;;;;;;15.59;100.00;100722.50;6158703;28;20321;-72
2024/04/05 11:58:23;;;;;;;4.87;2.57;;;;;;;15.54;100.00;100724.06;6157247;28;20234;-73
2024/04/05 12:01:44;;;;;;;6.37;2.50;;;;;;;15.47;100.00;100723.03;6166884;28;20237;-71
2024/04/05 12:05:07;;;;;;;5.53;2.70;;;;;;;15.40;100.00;100727.41;6160420;28;20322;-72
2024/04/05 12:08:28;;;;;;;8.00;2.97;;;;;;;15.31;100.00;100713.00;6153268;28;20758;-72
2024/04/05 12:11:48;;;;;;;2.93;2.63;;;;;;;15.24;100.00;100692.97;6153375;28;20238;-71
2024/04/05 12:15:09;;;;;;;6.30;2.90;;;;;;;15.15;100.00;100677.69;6152873;28;20233;-69
2024/04/05 12:18:30;;;;;;;6.33;3.60;;;;;;;15.23;100.00;100674.97;6148332;28;20231;-69
2024/04/05 12:21:52;;;;;;;4.47;3.17;;;;;;;15.18;100.00;100664.66;6147681;28;20234;-70
2024/04/05 12:25:14;;;;;;;5.33;2.97;;;;;;;15.25;100.00;100653.91;6151809;28;20258;-70
2024/04/05 12:28:34;;;;;;;5.13;3.20;;;;;;;15.26;100.00;100658.34;6158749;28;20231;-70
2024/04/05 12:31:55;;;;;;;5.77;2.87;;;;;;;15.16;100.00;100661.22;6153804;28;20230;-69
2024/04/05 12:35:16;;;;;;;6.60;3.03;;;;;;;15.27;100.00;100679.03;6155042;28;20482;-72
2024/04/05 12:38:39;;;;;;;8.57;2.93;;;;;;;15.16;100.00;100679.41;6155788;28;20863;-72
2024/04/05 12:42:00;;;;;;;6.60;2.37;;;;;;;15.09;100.00;100694.69;6155906;28;20298;-72
2024/04/05 12:45:21;;;;;;;6.93;2.53;;;;;;;15.03;100.00;100703.50;6144124;28;20229;-73
2024/04/05 12:48:41;;;;;;;4.90;2.80;;;;;;;14.95;100.00;100704.34;6166087;28;20241;-73
2024/04/05 12:52:03;;;;;;;6.37;2.70;;;;;;;14.96;100.00;100697.88;6146427;28;20231;-71
2024/04/05 12:55:26;;;;;;;3.70;3.37;;;;;;;15.04;100.00;100678.06;6163001;28;20226;-72
2024/04/05 12:58:50;;;;;;;4.90;3.87;;;;;;;15.16;100.00;100669.38;6168968;28;20309;-72
2024/04/05 13:02:10;;;;;;;7.13;3.07;;;;;;;15.18;100.00;100680.09;6163963;28;20376;-72
2024/04/05 13:05:31;;;;;;;7.20;3.57;;;;;;;15.14;100.00;100667.88;6156217;28;20238;-72
2024/04/05 13:08:52;;;;;;;5.13;3.07;;;;;;;15.16;100.00;100660.41;6163087;28;20230;-72
2024/04/05 13:12:15;;;;;;;4.47;2.70;;;;;;;15.15;100.00;100653.25;6162152;28;20254;-72
2024/04/05 13:15:35;;;;;;;5.47;2.83;;;;;;;15.05;100.00;100656.16;6160546;28;20597;-72
2024/04/05 13:18:57;;;;;;;5.00;2.77;;;;;;;14.98;100.00;100652.41;6162545;28;20233;-72
2024/04/05 13:22:20;;;;;;;8.03;3.67;;;;;;;14.97;100.00;100656.16;6168543;28;20234;-72
2024/04/05 13:25:42;;;;;;;6.67;2.70;;;;;;;14.90;100.00;100643.41;6167420;28;20235;-72
2024/04/05 13:29:04;;;;;;;3.10;2.77;;;;;;;14.80;100.00;100637.31;6166830;28;20325;-72
2024/04/05 13:32:25;;;;;;;4.67;3.00;;;;;;;14.83;100.00;100604.44;6165324;28;20234;-73
2024/04/05 13:35:45;;;;;;;5.43;2.70;;;;;;;14.69;100.00;100602.38;6165979;28;20245;-73
2024/04/05 13:39:09;;;;;;;5.60;3.77;;;;;;;14.69;100.00;100576.09;6170299;28;20222;-72
2024/04/05 13:42:30;;;;;;;3.53;2.33;;;;;;;14.64;100.00;100583.06;6165262;28;20226;-72
2024/04/05 13:45:51;;;;;;;3.27;2.30;;;;;;;14.63;100.00;100568.63;6164553;28;20230;-73
2024/04/05 13:49:12;;;;;;;4.13;2.47;;;;;;;14.57;100.00;100580.16;6159969;28;20230;-73
2024/04/05 13:52:33;;;;;;;2.27;1.90;;;;;;;14.52;100.00;100571.66;6168839;28;20241;-72
2024/04/05 13:55:54;;;;;;;3.03;2.20;;;;;;;14.53;100.00;100572.53;6161444;28;20235;-73
2024/04/05 13:59:15;;;;;;;4.70;2.27;;;;;;;14.52;100.00;100574.38;6167206;28;20941;-73
2024/04/05 14:02:37;;;;;;;2.77;1.97;;;;;;;14.53;100.00;100569.81;6158680;28;20238;-73
2024/04/05 14:05:58;;;;;;;4.30;2.50;;;;;;;14.53;100.00;100577.94;6145809;28;20233;-72
2024/04/05 14:09:18;;;;;;;3.73;2.37;;;;;;;14.45;100.00;100570.66;6161583;28;20234;-73
2024/04/05 14:12:39;;;;;;;4.40;2.37;;;;;;;14.50;100.00;100564.75;6155906;28;20234;-73
2024/04/05 14:16:01;;;;;;;3.33;2.27;;;;;;;14.54;100.00;100571.53;6156896;28;20238;-72
2024/04/05 14:19:23;;;;;;;3.23;2.80;;;;;;;14.52;100.00;100573.56;6140680;28;20670;-72
2024/04/05 14:22:44;;;;;;;6.73;2.40;;;;;;;14.50;100.00;100571.00;6150520;28;20250;-72
2024/04/05 14:26:04;;;;;;;7.60;3.20;;;;;;;14.51;100.00;100569.13;6155695;28;20234;-68
2024/04/05 14:29:25;;;;;;;5.63;3.03;;;;;;;14.46;100.00;100572.34;6166042;28;20607;-71
2024/04/05 14:32:46;;;;;;;5.90;2.10;;;;;;;14.43;100.00;100572.69;6152489;28;20383;-71
2024/04/05 14:36:09;;;;;;;4.73;2.60;;;;;;;14.41;100.00;100563.88;6155142;28;20234;-70
2024/04/05 14:39:32;;;;;;;2.43;2.23;;;;;;;14.49;100.00;100555.75;6163575;28;20921;-70
2024/04/05 14:42:53;;;;;;;7.17;1.97;;;;;;;14.41;100.00;100575.56;6159707;28;20229;-73
2024/04/05 14:46:13;;;;;;;6.00;2.43;;;;;;;14.34;100.00;100579.13;6155411;28;20710;-72
2024/04/05 14:49:35;;;;;;;8.07;2.90;;;;;;;14.29;100.00;100563.34;6161903;28;20253;-71
2024/04/05 14:52:57;;;;;;;6.57;2.37;;;;;;;14.26;100.00;100588.06;6149720;28;20227;-73
2024/04/05 14:56:19;;;;;;;5.50;2.13;;;;;;;14.19;100.00;100559.91;6148647;28;20248;-75
2024/04/05 14:59:40;;;;;;;3.07;2.23;;;;;;;14.15;100.00;100563.13;6154440;28;20234;-73
2024/04/05 15:03:00;;;;;;;5.37;2.07;;;;;;;14.18;100.00;100565.53;6145397;28;23353;-74
2024/04/05 15:06:21;;;;;;;3.93;2.40;;;;;;;14.33;100.00;100553.84;6156010;28;20557;-75
2024/04/05 15:09:42;;;;;;;5.67;2.93;;;;;;;14.80;100.00;100540.47;6152798;28;20320;-74
2024/04/05 15:13:03;;;;;;;5.23;4.53;;;;;;;14.90;100.00;100527.56;6148681;28;20234;-74
2024/04/05 15:16:25;;;;;;;5.93;4.47;;;;;;;15.11;100.00;100522.44;6139791;28;20974;-79
2024/04/05 15:19:46;;;;;;;40.97;36.60;;;;;;;15.31;100.00;100520.13;6153035;28;20226;-74
2024/04/05 15:23:07;;;;;;;12.07;11.07;;;;;;;15.10;100.00;100515.28;6166889;28;20599;-74